Airfield :
LOGIN :

Register | Disclaimer

   EN    FR    IT 

 










Legend :    VFR   Marginal VFR   IFR   Intensive IFR   Very Intensive IFR
Visi :
Ceiling :
>= 8 km
>= 3000ft
5 to 8 km
1000 to 3000 ft
1500m to 5 km
500 to 1000 ft
800 to 1500m
200 to 500 ft
< 800m
< 200 ft
Symbols :   Thunderstorms  Fog  Heavy snow  Heavy precipitations  Wind > 20 kt
SIGMETs :     Misc.  Thunderstorms  Icing  Turbulence  Mountain Waves  Volcanic Ashes






- Airport Elevation : 174 ft
- IATA code : RYG


ENRY - Moss , Rygge

CURRENT METAR :
  • 211020Z 13005KT 4900 BR BKN002 02/01 Q1011 TEMPO 7000 NSW

EXPIRED METARs :
  • 210950Z 14005KT 1300 R12/1600U R30/1600N BR OVC001 02/01 Q1011 TEMPO 4000 BR OVC003
  • 210920Z 13004KT 0250 R12/0650N R30/0450N FG VV002 01/01 Q1011 TEMPO VV001
  • 210850Z 13004KT 0150 R12/0400N R30/0300N FG VV001 01/00 Q1011 NOSIG
  • 210820Z 11004KT 0200 R12/0450N R30/0450N FG VV002 01/00 Q1012 TEMPO VV001
  • 210750Z 13004KT 0400 R12/1200D R30/0750N FG OVC002 01/00 Q1011 TEMPO VV001

TAF AMD TAF ENRY
Valid from the 21 at 08:00 until the 22 at 06:00 UTC


210801Z 2108/2206 15007KT 0200 FG VV001
TEMPO 2108/2117 5000 BR OVC003
BECMG 2117/2119 4000 -RADZ BR BKN005
TEMPO 2119/2203 2000 RASN BR OVC002
BECMG 2203/2205 0300 FG VV001



MET'MAP, your aeronautical weather chart ! - Copyright ORBIFLY December 2007 - Disclaimer

ORBIFLY MET'MAP TEAM :

Programming & Development : Alexandra Zaïnal
Original concept : Baudouin d'Aumeries
Technical & hardware support : Manuel Goepfert
Assistance : Marc-Olivier Méhu




SOURCES & CREDITS :

   NOAA